Terminal Aerodrome Forecast
Issued by NWS

Home | Current Version | Previous Version | Text Only | Print | Product List | Glossary On
Versions: 1 2 3 4 5 6 7 8 9 10 11 12 13 14 15 16 17 18 19 20 21 22 23 24
638
FTAK31 PANC 070539
TAFAGK
TAF
PAGK 070539Z 0706/0806 VRB03KT P6SM VCSH BKN050 OVC090
      WS020/15030KT
     FM071500 36005KT P6SM SCT050 BKN100=

USA.gov is the U.S. government's official web portal to all federal, state and local government web resources and services.